Slotergracht — PDBP — position and weather

sailwx.info

Track history (hours):
 
Tides and Currents Weather Stations Pressure Air Temp Water Temp Dewpoint Dewpoint Depression Visibility Wind Speed Wind Dir Waves Ship Positions

Slotergracht

Last reported at 2018-Nov-07 14:38 UTC. Time now 2018-Nov-15 23:55 UTC.
Position N 58°43' W 003°35'.
Warning: this ship's position is 8 days out of date.

Length 168 m; beam 25 m.

Type: Cargo ship. MMSI: 246456000.

Date/timePositionNaut miles runAvg speedWind from/ knotsBaromVisibWave heightAir tempDewpointWater temp
2018-Nov-07 14:38N 58°43' W 003°35'217.7
2018-Nov-07 14:32N 58°43' W 003°32'1019.8
2018-Nov-07 14:02N 58°44' W 003°13'1121.6
2018-Nov-07 13:32N 58°42' W 002°52'815.8
2018-Nov-07 13:02N 58°37' W 002°41'35315.9
2018-Nov-06 14:51N 54°22' E 004°42'816.4
2018-Nov-06 14:22N 54°17' E 004°52'3914.8
2018-Nov-06 11:42N 53°54' E 005°47'516.9
2018-Nov-06 11:25N 53°53' E 005°55'816.7
2018-Nov-06 10:54N 53°51' E 006°09'815.4
2018-Nov-06 10:24N 53°43' E 006°14'515.4
2018-Nov-06 10:03N 53°38' E 006°18'114.7
2018-Nov-06 10:00N 53°38' E 006°19'612.7
2018-Nov-06 09:30N 53°37' E 006°29'613.9
2018-Nov-06 09:03N 53°34' E 006°39'114.6
2018-Nov-06 09:00N 53°34' E 006°40'713.8
2018-Nov-06 08:31N 53°30' E 006°49'3 5.8
2018-Nov-06 08:04N 53°27' E 006°50'0 0.6
2018-Nov-06 08:00N 53°27' E 006°50'0 0.0
2018-Nov-06 07:21N 53°27' E 006°50'0 0.0
2018-Nov-06 07:03N 53°27' E 006°50'0 0.0
2018-Nov-06 07:00N 53°27' E 006°50'0 0.0
2018-Nov-06 06:30N 53°27' E 006°50'0 0.0
2018-Nov-06 06:00N 53°27' E 006°50'0 0.0
2018-Nov-06 05:30N 53°27' E 006°50'0 0.0
2018-Nov-06 05:03N 53°27' E 006°50'0 0.2
2018-Nov-06 05:00N 53°27' E 006°50'0 0.0
2018-Nov-06 04:24N 53°27' E 006°50'0 0.0
2018-Nov-06 03:57N 53°27' E 006°50'0 0.0
2018-Nov-06 03:30N 53°27' E 006°50'0 0.0
2018-Nov-06 03:00N 53°27' E 006°50'0 0.0
2018-Nov-06 02:30N 53°27' E 006°50'0 0.1
2018-Nov-06 02:03N 53°27' E 006°50'0 0.1
2018-Nov-06 01:57N 53°27' E 006°50'0 0.2
2018-Nov-06 01:30N 53°27' E 006°50'0 0.1
2018-Nov-06 01:00N 53°27' E 006°50'0 0.0
2018-Nov-05 23:30N 53°27' E 006°50'0 0.0
2018-Nov-05 23:03N 53°27' E 006°50'0 0.1
2018-Nov-05 23:00N 53°27' E 006°50'0 0.0
2018-Nov-05 22:30N 53°27' E 006°50'0 0.0
2018-Nov-05 22:03N 53°27' E 006°50'0 0.1
2018-Nov-05 21:57N 53°27' E 006°50'0 0.0
2018-Nov-05 21:30N 53°27' E 006°50'0 0.0
2018-Nov-05 21:03N 53°27' E 006°50'0 0.2
2018-Nov-05 21:00N 53°27' E 006°50'2 3.2
2018-Nov-05 20:31N 53°29' E 006°50'612.5
2018-Nov-05 20:03N 53°32' E 006°43'216.3
2018-Nov-05 19:57N 53°33' E 006°41'715.5
2018-Nov-05 19:30N 53°37' E 006°31'714.5
2018-Nov-05 19:02N 53°38' E 006°19'012.4
2018-Nov-05 19:00N 53°38' E 006°19'1 1.2
2018-Nov-05 18:30N 53°38' E 006°20'2 3.9
2018-Nov-05 18:03N 53°39' E 006°17'0 5.6
2018-Nov-05 18:00N 53°39' E 006°17'3 5.8
2018-Nov-05 17:29N 53°39' E 006°12'1 1.9
2018-Nov-05 16:47N 53°40' E 006°10'0 0.3
2018-Nov-05 16:26N 53°39' E 006°10'0 0.0
2018-Nov-05 15:56N 53°39' E 006°10'0 0.0
2018-Nov-05 14:40N 53°39' E 006°10'0 0.0
2018-Nov-05 14:01N 53°39' E 006°10'0 0.0
2018-Nov-05 13:52N 53°39' E 006°10'0 0.0
2018-Nov-05 12:49N 53°39' E 006°10'0 0.0
2018-Nov-05 12:25N 53°39' E 006°10'0 0.2
2018-Nov-05 11:52N 53°39' E 006°10'1 3.8
2018-Nov-05 11:30N 53°41' E 006°08'4 8.2
2018-Nov-05 11:03N 53°44' E 006°07'0 8.4
2018-Nov-05 11:00N 53°45' E 006°07'510.1
2018-Nov-05 10:30N 53°49' E 006°04'813.1
2018-Nov-05 09:55N 53°56' E 006°10'513.1
2018-Nov-05 09:30N 54°01' E 006°14'712.9
2018-Nov-05 08:59N 54°07' E 006°19'712.3
2018-Nov-05 08:24N 54°14' E 006°22'513.0
2018-Nov-05 08:03N 54°18' E 006°26'113.1
2018-Nov-05 08:00N 54°18' E 006°27'712.6
2018-Nov-05 07:28N 54°25' E 006°31'513.0
2018-Nov-05 07:03N 54°30' E 006°32'113.0
2018-Nov-05 07:00N 54°31' E 006°32'612.9
2018-Nov-05 06:30N 54°37' E 006°33'1613.3
2018-Nov-05 05:17N 54°53' E 006°35'11514.0
2018-Nov-04 21:04N 56°41' E 007°48'414.6
2018-Nov-04 20:49N 56°44' E 007°51'514.7
2018-Nov-04 20:30N 56°48' E 007°55'714.4
2018-Nov-04 19:59N 56°55' E 008°01'814.3
2018-Nov-04 19:27N 57°02' E 008°06'714.2
2018-Nov-04 18:56N 57°08' E 008°13'1713.8
2018-Nov-04 17:43N 57°21' E 008°33'1113.9
2018-Nov-04 16:58N 57°28' E 008°47'713.9
2018-Nov-04 16:29N 57°33' E 008°56'613.9
2018-Nov-04 16:02N 57°37' E 009°05'113.8
2018-Nov-04 16:00N 57°37' E 009°06'713.8
2018-Nov-04 15:29N 57°40' E 009°18'614.1
2018-Nov-04 15:02N 57°41' E 009°29'113.9
2018-Nov-04 14:59N 57°41' E 009°31'714.2
2018-Nov-04 14:30N 57°44' E 009°43'614.1
2018-Nov-04 14:03N 57°46' E 009°54'114.0
2018-Nov-04 14:00N 57°46' E 009°56'714.1
2018-Nov-04 13:30N 57°48' E 010°08'614.0
2018-Nov-04 13:03N 57°48' E 010°20'113.9
2018-Nov-04 13:00N 57°48' E 010°21'714.2
2018-Nov-04 12:30N 57°48' E 010°35'614.0
2018-Nov-04 12:03N 57°47' E 010°46'113.7
2018-Nov-04 12:01N 57°47' E 010°48'714.0
2018-Nov-04 11:30N 57°43' E 010°59'714.6
2018-Nov-04 11:03N 57°39' E 011°08'115.3
2018-Nov-04 11:00N 57°39' E 011°09'714.1
2018-Nov-04 10:30N 57°35' E 011°20'714.5
2018-Nov-04 10:03N 57°34' E 011°32'114.2
2018-Nov-04 10:00N 57°34' E 011°33'4 7.3
2018-Nov-04 09:30N 57°35' E 011°40'0 0.1
2018-Nov-04 09:03N 57°35' E 011°40'0 0.1
2018-Nov-04 09:00N 57°35' E 011°40'0 0.0
2018-Nov-04 08:30N 57°35' E 011°40'0 0.0
2018-Nov-04 08:03N 57°35' E 011°40'0 0.2
2018-Nov-04 08:00N 57°35' E 011°40'0 0.0
2018-Nov-04 07:30N 57°35' E 011°40'0 0.0
2018-Nov-04 07:03N 57°35' E 011°40'0 0.1
2018-Nov-04 07:00N 57°35' E 011°40'0 0.0
2018-Nov-04 06:30N 57°35' E 011°40'0 0.0
2018-Nov-04 06:03N 57°35' E 011°40'0 0.0
2018-Nov-04 06:00N 57°35' E 011°40'0 0.0
2018-Nov-04 05:30N 57°35' E 011°40'0 0.0
2018-Nov-04 05:03N 57°35' E 011°40'0 0.1
2018-Nov-04 05:00N 57°35' E 011°40'0 0.0
2018-Nov-04 04:30N 57°35' E 011°40'0 0.0
2018-Nov-04 04:03N 57°35' E 011°40'0 0.1
2018-Nov-04 04:00N 57°35' E 011°40'0 0.0
2018-Nov-04 03:30N 57°35' E 011°40'0 0.0
2018-Nov-04 03:03N 57°35' E 011°40'0 0.1
2018-Nov-04 03:00N 57°35' E 011°40'0 0.0
2018-Nov-04 02:30N 57°35' E 011°40'0 0.0
2018-Nov-04 02:03N 57°35' E 011°40'0 0.0
2018-Nov-04 02:00N 57°35' E 011°40'0 0.0
2018-Nov-04 01:30N 57°35' E 011°40'0 0.3
2018-Nov-04 01:04N 57°35' E 011°40'0 3.1
2018-Nov-04 01:01N 57°35' E 011°40'3 6.7
2018-Nov-04 00:30N 57°32' E 011°35'714.4
2018-Nov-04 00:03N 57°28' E 011°27'115.3
2018-Nov-04 00:00N 57°27' E 011°27'816.0
2018-Nov-03 23:30N 57°20' E 011°32'715.9
2018-Nov-03 23:03N 57°13' E 011°36'116.1
2018-Nov-03 23:00N 57°12' E 011°37'816.1
2018-Nov-03 22:30N 57°05' E 011°42'3214.3
2018-Nov-03 20:18N 56°33' E 011°42'515.8
2018-Nov-03 20:00N 56°29' E 011°37'6715.0
2018-Nov-03 15:30N 55°25' E 010°59'714.4
2018-Nov-03 15:00N 55°18' E 011°03'713.4
2018-Nov-03 14:30N 55°12' E 011°05'612.8
2018-Nov-03 14:04N 55°07' E 010°60'114.1
2018-Nov-03 14:01N 55°06' E 010°59'713.6
2018-Nov-03 13:30N 54°60' E 010°59'613.0
2018-Nov-03 13:03N 54°55' E 010°52'113.8
2018-Nov-03 13:00N 54°55' E 010°52'612.7
2018-Nov-03 12:30N 54°48' E 010°50'613.1
2018-Nov-03 12:03N 54°43' E 010°47'113.5
2018-Nov-03 12:00N 54°42' E 010°47'612.8
2018-Nov-03 11:30N 54°38' E 010°55'613.1
2018-Nov-03 11:03N 54°36' E 011°05'113.7
2018-Nov-03 11:00N 54°36' E 011°06'713.1
2018-Nov-03 10:30N 54°34' E 011°17'613.7
2018-Nov-03 10:03N 54°32' E 011°26'114.5
2018-Nov-03 10:00N 54°31' E 011°28'714.3
2018-Nov-03 09:31N 54°29' E 011°39'613.2
2018-Nov-03 09:03N 54°26' E 011°49'112.7
2018-Nov-03 09:00N 54°26' E 011°49'612.7
2018-Nov-03 08:30N 54°26' E 012°00'1111.1
2018-Nov-03 07:30N 54°34' E 012°15'812.9
2018-Nov-03 06:54N 54°39' E 012°24'513.4
2018-Nov-03 06:31N 54°42' E 012°32'1013.4
2018-Nov-03 05:47N 54°47' E 012°46'413.4
2018-Nov-03 05:28N 54°49' E 012°53'4113.3
2018-Nov-03 02:25N 55°03' E 013°59'913.2
2018-Nov-03 01:46N 55°09' E 014°10'613.3
2018-Nov-03 01:20N 55°13' E 014°16'413.2
2018-Nov-03 01:03N 55°16' E 014°20'113.4
2018-Nov-03 00:58N 55°17' E 014°22'2713.2
2018-Nov-02 22:56N 55°34' E 014°59'613.1
2018-Nov-02 22:30N 55°36' E 015°08'613.2
2018-Nov-02 22:04N 55°39' E 015°17'113.1
2018-Nov-02 22:01N 55°40' E 015°18'713.2
2018-Nov-02 21:30N 55°43' E 015°28'613.3
2018-Nov-02 21:03N 55°46' E 015°37'113.3
2018-Nov-02 21:01N 55°46' E 015°38'713.3
2018-Nov-02 20:31N 55°50' E 015°48'613.4
2018-Nov-02 20:04N 55°53' E 015°57'113.6
2018-Nov-02 20:01N 55°53' E 015°58'713.3
2018-Nov-02 19:30N 55°57' E 016°09'613.4
2018-Nov-02 19:03N 55°60' E 016°18'113.4
2018-Nov-02 19:01N 55°60' E 016°19'713.3
2018-Nov-02 18:30N 56°03' E 016°29'613.1
2018-Nov-02 18:03N 56°06' E 016°38'112.9
2018-Nov-02 18:01N 56°07' E 016°39'713.1
2018-Nov-02 17:30N 56°12' E 016°47'613.5
2018-Nov-02 17:03N 56°18' E 016°51'113.3
2018-Nov-02 17:00N 56°18' E 016°51'713.5
2018-Nov-02 16:30N 56°25' E 016°55'23014.0
2018-Nov-02 00:06N 60°03' E 019°14'115.8
2018-Nov-02 00:03N 60°03' E 019°13'115.8
2018-Nov-02 00:00N 60°04' E 019°12'815.9
2018-Nov-01 23:30N 60°10' E 019°02'716.0
2018-Nov-01 23:03N 60°17' E 019°00'116.4
2018-Nov-01 23:00N 60°18' E 019°00'816.0
2018-Nov-01 22:30N 60°26' E 018°59'1015.8
2018-Nov-01 21:53N 60°36' E 018°60'915.8
2018-Nov-01 21:20N 60°44' E 019°01'64 1.3
2018-Oct-30 20:34N 61°16' E 020°57'114.4
2018-Oct-30 20:30N 61°15' E 020°58'816.3
2018-Oct-30 19:59N 61°08' E 021°08'612.4
2018-Oct-30 19:30N 61°06' E 021°20'4 7.0
2018-Oct-30 19:00N 61°08' E 021°26'0 0.0
2018-Oct-30 18:27N 61°08' E 021°26'0 0.0
2018-Oct-30 18:02N 61°08' E 021°26'0 0.1
2018-Oct-30 17:59N 61°08' E 021°26'0 0.0
2018-Oct-30 17:30N 61°08' E 021°26'0 0.0
2018-Oct-30 17:02N 61°08' E 021°26'0 0.0
2018-Oct-30 16:56N 61°08' E 021°26'0 0.0
2018-Oct-30 16:29N 61°08' E 021°26'0 0.0
2018-Oct-30 15:53N 61°08' E 021°26'0 0.0
2018-Oct-30 15:30N 61°08' E 021°26'0 0.0
2018-Oct-30 14:58N 61°08' E 021°26'0 0.0
2018-Oct-30 14:02N 61°08' E 021°26'0 0.0
2018-Oct-30 13:29N 61°08' E 021°26'0 0.0
2018-Oct-30 12:59N 61°08' E 021°26'0 0.0
2018-Oct-30 12:17N 61°08' E 021°26'0 0.0
2018-Oct-30 11:59N 61°08' E 021°26'0 0.0
2018-Oct-30 11:28N 61°08' E 021°26'0 0.0
2018-Oct-30 10:50N 61°08' E 021°26'0 0.0
2018-Oct-30 10:29N 61°08' E 021°26'0 0.0
2018-Oct-30 10:01N 61°08' E 021°26'0 0.1
2018-Oct-30 09:58N 61°08' E 021°26'0 0.0
2018-Oct-30 09:29N 61°08' E 021°26'0 0.0
2018-Oct-30 08:46N 61°08' E 021°26'0 0.0
2018-Oct-30 08:29N 61°08' E 021°26'0 0.0
2018-Oct-30 08:02N 61°08' E 021°26'0 0.1
2018-Oct-30 07:59N 61°08' E 021°26'0 0.0
2018-Oct-30 07:28N 61°08' E 021°26'0 0.1
2018-Oct-30 06:59N 61°08' E 021°26'0 0.0
2018-Oct-30 06:28N 61°08' E 021°26'0 0.0
2018-Oct-30 06:01N 61°08' E 021°26'0 0.2
2018-Oct-30 05:58N 61°08' E 021°26'0 0.0
2018-Oct-30 05:29N 61°08' E 021°26'0 0.0
2018-Oct-30 05:01N 61°08' E 021°26'0 0.1
2018-Oct-30 04:58N 61°08' E 021°26'0 0.0
2018-Oct-30 04:18N 61°08' E 021°26'0 0.0
2018-Oct-30 04:02N 61°08' E 021°26'0 0.1
2018-Oct-30 03:59N 61°08' E 021°26'0 0.0
2018-Oct-30 03:29N 61°08' E 021°26'0 0.0
2018-Oct-30 03:01N 61°08' E 021°26'0 0.1
2018-Oct-30 02:58N 61°08' E 021°26'0 0.0
2018-Oct-30 02:29N 61°08' E 021°26'0 0.0
2018-Oct-30 02:00N 61°08' E 021°26'0 0.0
2018-Oct-30 01:25N 61°08' E 021°26'0 0.0
2018-Oct-30 01:02N 61°08' E 021°26'0 0.1
2018-Oct-30 00:58N 61°08' E 021°26'0 0.0
2018-Oct-30 00:23N 61°08' E 021°26'0 0.0
2018-Oct-30 00:01N 61°08' E 021°26'0 0.2
2018-Oct-29 23:58N 61°08' E 021°26'0 0.0
2018-Oct-29 23:19N 61°08' E 021°26'0 0.0
2018-Oct-29 22:56N 61°08' E 021°26'0 0.0
2018-Oct-29 22:28N 61°08' E 021°26'0 0.0
2018-Oct-29 22:01N 61°08' E 021°26'0 0.1
2018-Oct-29 21:58N 61°08' E 021°26'0 0.0
2018-Oct-29 21:28N 61°08' E 021°26'0 0.0
2018-Oct-29 21:01N 61°08' E 021°26'0 0.1
2018-Oct-29 20:58N 61°08' E 021°26'0 0.0
2018-Oct-29 20:29N 61°08' E 021°26'0 0.0
2018-Oct-29 19:55N 61°08' E 021°26'0 0.0
2018-Oct-29 19:28N 61°08' E 021°26'0 0.0
2018-Oct-29 19:03N 61°08' E 021°26'0 0.0
2018-Oct-29 19:00N 61°08' E 021°26'0 0.0
2018-Oct-29 18:28N 61°08' E 021°26'0 0.0
2018-Oct-29 18:03N 61°08' E 021°26'0 0.0
2018-Oct-29 17:56N 61°08' E 021°26'0 0.0
2018-Oct-29 17:28N 61°08' E 021°26'0 0.0
2018-Oct-29 16:42N 61°08' E 021°26'0 0.0
2018-Oct-29 16:30N 61°08' E 021°26'0 0.0
2018-Oct-29 15:58N 61°08' E 021°26'0 0.0
2018-Oct-29 15:29N 61°08' E 021°26'0 0.0
2018-Oct-29 15:01N 61°08' E 021°26'0 0.1
2018-Oct-29 14:58N 61°08' E 021°26'0 0.0
2018-Oct-29 14:19N 61°08' E 021°26'0 0.0
2018-Oct-29 13:55N 61°08' E 021°26'0 0.0
2018-Oct-29 13:25N 61°08' E 021°26'0 0.0
2018-Oct-29 13:00N 61°08' E 021°26'0 0.0
2018-Oct-29 12:19N 61°08' E 021°26'0 0.0
2018-Oct-29 12:01N 61°08' E 021°26'0 0.0
2018-Oct-29 11:58N 61°08' E 021°26'0 0.0
2018-Oct-29 11:28N 61°08' E 021°26'0 0.0
2018-Oct-29 11:01N 61°08' E 021°26'0 0.1
2018-Oct-29 10:58N 61°08' E 021°26'0 0.0
2018-Oct-29 10:28N 61°08' E 021°26'0 0.0
2018-Oct-29 09:58N 61°08' E 021°26'0 0.0
2018-Oct-29 09:29N 61°08' E 021°26'0 0.0
2018-Oct-29 09:01N 61°08' E 021°26'0 0.0
2018-Oct-29 08:58N 61°08' E 021°26'0 0.0
2018-Oct-29 08:28N 61°08' E 021°26'0 0.0
2018-Oct-29 08:01N 61°08' E 021°26'0 0.0
2018-Oct-29 07:55N 61°08' E 021°26'0 0.0
2018-Oct-29 07:27N 61°08' E 021°26'0 0.0
2018-Oct-29 07:01N 61°08' E 021°26'0 0.2
2018-Oct-29 06:58N 61°08' E 021°26'0 0.0
2018-Oct-29 06:28N 61°08' E 021°26'0 0.0
2018-Oct-29 06:02N 61°08' E 021°26'0 0.1
2018-Oct-29 05:59N 61°08' E 021°26'0 0.0
2018-Oct-29 05:27N 61°08' E 021°26'0 0.0
2018-Oct-29 04:58N 61°08' E 021°26'0 0.0
2018-Oct-29 04:28N 61°08' E 021°26'0 0.0
2018-Oct-29 03:59N 61°08' E 021°26'0 0.0
2018-Oct-29 03:29N 61°08' E 021°26'0 0.0
2018-Oct-29 02:58N 61°08' E 021°26'0 0.0
2018-Oct-29 02:28N 61°08' E 021°26'0 0.0
2018-Oct-29 02:03N 61°08' E 021°26'0 0.0
2018-Oct-29 01:57N 61°08' E 021°26'0 0.0
2018-Oct-29 01:29N 61°08' E 021°26'0 0.0
2018-Oct-29 01:01N 61°08' E 021°26'0 0.0
2018-Oct-29 00:29N 61°08' E 021°26'0 0.0
2018-Oct-28 23:57N 61°08' E 021°26'0 0.0
2018-Oct-28 23:28N 61°08' E 021°26'0 0.0
2018-Oct-28 23:03N 61°08' E 021°26'0 0.0
2018-Oct-28 22:56N 61°08' E 021°26'0 0.0
2018-Oct-28 22:28N 61°08' E 021°26'0 0.0
2018-Oct-28 22:02N 61°08' E 021°26'0 0.0
2018-Oct-28 21:59N 61°08' E 021°26'0 0.0
2018-Oct-28 21:28N 61°08' E 021°26'0 0.0
2018-Oct-28 21:02N 61°08' E 021°26'0 0.1
2018-Oct-28 20:56N 61°08' E 021°26'0 0.0
2018-Oct-28 20:28N 61°08' E 021°26'0 0.0
2018-Oct-28 19:45N 61°08' E 021°26'0 0.0
2018-Oct-28 19:26N 61°08' E 021°26'0 0.0
2018-Oct-28 19:02N 61°08' E 021°26'0 0.2
2018-Oct-28 18:58N 61°08' E 021°26'0 0.0
2018-Oct-28 18:29N 61°08' E 021°26'0 0.0
2018-Oct-28 18:01N 61°08' E 021°26'0 0.1
2018-Oct-28 17:57N 61°08' E 021°26'0 0.0
2018-Oct-28 17:25N 61°08' E 021°26'0 0.0
2018-Oct-28 17:03N 61°08' E 021°26'0 0.1
2018-Oct-28 16:59N 61°08' E 021°26'0 0.0
2018-Oct-28 16:26N 61°08' E 021°26'0 0.0
2018-Oct-28 16:00N 61°08' E 021°26'0 0.0
2018-Oct-28 15:30N 61°08' E 021°26'0 0.0
2018-Oct-28 14:59N 61°08' E 021°26'  
Track history (hours):
 
Tides and Currents Weather Stations Pressure Air Temp Water Temp Dewpoint Dewpoint Depression Visibility Wind Speed Wind Dir Waves Ship Positions

Slotergracht

Last reported at 2018-Nov-07 14:38 UTC. Time now 2018-Nov-15 23:55 UTC.
Position N 58°43' W 003°35'.
Warning: this ship's position is 8 days out of date.

Length 168 m; beam 25 m.

Type: Cargo ship. MMSI: 246456000.

Date/timePositionNaut miles runAvg speedWind from/ knotsBaromVisibWave heightAir tempDewpointWater temp
2018-Nov-07 14:38N 58°43' W 003°35'217.7
2018-Nov-07 14:32N 58°43' W 003°32'1019.8
2018-Nov-07 14:02N 58°44' W 003°13'1121.6
2018-Nov-07 13:32N 58°42' W 002°52'815.8
2018-Nov-07 13:02N 58°37' W 002°41'35315.9
2018-Nov-06 14:51N 54°22' E 004°42'816.4
2018-Nov-06 14:22N 54°17' E 004°52'3914.8
2018-Nov-06 11:42N 53°54' E 005°47'516.9
2018-Nov-06 11:25N 53°53' E 005°55'816.7
2018-Nov-06 10:54N 53°51' E 006°09'815.4
2018-Nov-06 10:24N 53°43' E 006°14'515.4
2018-Nov-06 10:03N 53°38' E 006°18'114.7
2018-Nov-06 10:00N 53°38' E 006°19'612.7
2018-Nov-06 09:30N 53°37' E 006°29'613.9
2018-Nov-06 09:03N 53°34' E 006°39'114.6
2018-Nov-06 09:00N 53°34' E 006°40'713.8
2018-Nov-06 08:31N 53°30' E 006°49'3 5.8
2018-Nov-06 08:04N 53°27' E 006°50'0 0.6
2018-Nov-06 08:00N 53°27' E 006°50'0 0.0
2018-Nov-06 07:21N 53°27' E 006°50'0 0.0
2018-Nov-06 07:03N 53°27' E 006°50'0 0.0
2018-Nov-06 07:00N 53°27' E 006°50'0 0.0
2018-Nov-06 06:30N 53°27' E 006°50'0 0.0
2018-Nov-06 06:00N 53°27' E 006°50'0 0.0
2018-Nov-06 05:30N 53°27' E 006°50'0 0.0
2018-Nov-06 05:03N 53°27' E 006°50'0 0.2
2018-Nov-06 05:00N 53°27' E 006°50'0 0.0
2018-Nov-06 04:24N 53°27' E 006°50'0 0.0
2018-Nov-06 03:57N 53°27' E 006°50'0 0.0
2018-Nov-06 03:30N 53°27' E 006°50'0 0.0
2018-Nov-06 03:00N 53°27' E 006°50'0 0.0
2018-Nov-06 02:30N 53°27' E 006°50'0 0.1
2018-Nov-06 02:03N 53°27' E 006°50'0 0.1
2018-Nov-06 01:57N 53°27' E 006°50'0 0.2
2018-Nov-06 01:30N 53°27' E 006°50'0 0.1
2018-Nov-06 01:00N 53°27' E 006°50'0 0.0
2018-Nov-05 23:30N 53°27' E 006°50'0 0.0
2018-Nov-05 23:03N 53°27' E 006°50'0 0.1
2018-Nov-05 23:00N 53°27' E 006°50'0 0.0
2018-Nov-05 22:30N 53°27' E 006°50'0 0.0
2018-Nov-05 22:03N 53°27' E 006°50'0 0.1
2018-Nov-05 21:57N 53°27' E 006°50'0 0.0
2018-Nov-05 21:30N 53°27' E 006°50'0 0.0
2018-Nov-05 21:03N 53°27' E 006°50'0 0.2
2018-Nov-05 21:00N 53°27' E 006°50'2 3.2
2018-Nov-05 20:31N 53°29' E 006°50'612.5
2018-Nov-05 20:03N 53°32' E 006°43'216.3
2018-Nov-05 19:57N 53°33' E 006°41'715.5
2018-Nov-05 19:30N 53°37' E 006°31'714.5
2018-Nov-05 19:02N 53°38' E 006°19'012.4
2018-Nov-05 19:00N 53°38' E 006°19'1 1.2
2018-Nov-05 18:30N 53°38' E 006°20'2 3.9
2018-Nov-05 18:03N 53°39' E 006°17'0 5.6
2018-Nov-05 18:00N 53°39' E 006°17'3 5.8
2018-Nov-05 17:29N 53°39' E 006°12'1 1.9
2018-Nov-05 16:47N 53°40' E 006°10'0 0.3
2018-Nov-05 16:26N 53°39' E 006°10'0 0.0
2018-Nov-05 15:56N 53°39' E 006°10'0 0.0
2018-Nov-05 14:40N 53°39' E 006°10'0 0.0
2018-Nov-05 14:01N 53°39' E 006°10'0 0.0
2018-Nov-05 13:52N 53°39' E 006°10'0 0.0
2018-Nov-05 12:49N 53°39' E 006°10'0 0.0
2018-Nov-05 12:25N 53°39' E 006°10'0 0.2
2018-Nov-05 11:52N 53°39' E 006°10'1 3.8
2018-Nov-05 11:30N 53°41' E 006°08'4 8.2
2018-Nov-05 11:03N 53°44' E 006°07'0 8.4
2018-Nov-05 11:00N 53°45' E 006°07'510.1
2018-Nov-05 10:30N 53°49' E 006°04'813.1
2018-Nov-05 09:55N 53°56' E 006°10'513.1
2018-Nov-05 09:30N 54°01' E 006°14'712.9
2018-Nov-05 08:59N 54°07' E 006°19'712.3
2018-Nov-05 08:24N 54°14' E 006°22'513.0
2018-Nov-05 08:03N 54°18' E 006°26'113.1
2018-Nov-05 08:00N 54°18' E 006°27'712.6
2018-Nov-05 07:28N 54°25' E 006°31'513.0
2018-Nov-05 07:03N 54°30' E 006°32'113.0
2018-Nov-05 07:00N 54°31' E 006°32'612.9
2018-Nov-05 06:30N 54°37' E 006°33'1613.3
2018-Nov-05 05:17N 54°53' E 006°35'11514.0
2018-Nov-04 21:04N 56°41' E 007°48'414.6
2018-Nov-04 20:49N 56°44' E 007°51'514.7
2018-Nov-04 20:30N 56°48' E 007°55'714.4
2018-Nov-04 19:59N 56°55' E 008°01'814.3
2018-Nov-04 19:27N 57°02' E 008°06'714.2
2018-Nov-04 18:56N 57°08' E 008°13'1713.8
2018-Nov-04 17:43N 57°21' E 008°33'1113.9
2018-Nov-04 16:58N 57°28' E 008°47'713.9
2018-Nov-04 16:29N 57°33' E 008°56'613.9
2018-Nov-04 16:02N 57°37' E 009°05'113.8
2018-Nov-04 16:00N 57°37' E 009°06'713.8
2018-Nov-04 15:29N 57°40' E 009°18'614.1
2018-Nov-04 15:02N 57°41' E 009°29'113.9
2018-Nov-04 14:59N 57°41' E 009°31'714.2
2018-Nov-04 14:30N 57°44' E 009°43'614.1
2018-Nov-04 14:03N 57°46' E 009°54'114.0
2018-Nov-04 14:00N 57°46' E 009°56'714.1
2018-Nov-04 13:30N 57°48' E 010°08'614.0
2018-Nov-04 13:03N 57°48' E 010°20'113.9
2018-Nov-04 13:00N 57°48' E 010°21'714.2
2018-Nov-04 12:30N 57°48' E 010°35'614.0
2018-Nov-04 12:03N 57°47' E 010°46'113.7
2018-Nov-04 12:01N 57°47' E 010°48'714.0
2018-Nov-04 11:30N 57°43' E 010°59'714.6
2018-Nov-04 11:03N 57°39' E 011°08'115.3
2018-Nov-04 11:00N 57°39' E 011°09'714.1
2018-Nov-04 10:30N 57°35' E 011°20'714.5
2018-Nov-04 10:03N 57°34' E 011°32'114.2
2018-Nov-04 10:00N 57°34' E 011°33'4 7.3
2018-Nov-04 09:30N 57°35' E 011°40'0 0.1
2018-Nov-04 09:03N 57°35' E 011°40'0 0.1
2018-Nov-04 09:00N 57°35' E 011°40'0 0.0
2018-Nov-04 08:30N 57°35' E 011°40'0 0.0
2018-Nov-04 08:03N 57°35' E 011°40'0 0.2
2018-Nov-04 08:00N 57°35' E 011°40'0 0.0
2018-Nov-04 07:30N 57°35' E 011°40'0 0.0
2018-Nov-04 07:03N 57°35' E 011°40'0 0.1
2018-Nov-04 07:00N 57°35' E 011°40'0 0.0
2018-Nov-04 06:30N 57°35' E 011°40'0 0.0
2018-Nov-04 06:03N 57°35' E 011°40'0 0.0
2018-Nov-04 06:00N 57°35' E 011°40'0 0.0
2018-Nov-04 05:30N 57°35' E 011°40'0 0.0
2018-Nov-04 05:03N 57°35' E 011°40'0 0.1
2018-Nov-04 05:00N 57°35' E 011°40'0 0.0
2018-Nov-04 04:30N 57°35' E 011°40'0 0.0
2018-Nov-04 04:03N 57°35' E 011°40'0 0.1
2018-Nov-04 04:00N 57°35' E 011°40'0 0.0
2018-Nov-04 03:30N 57°35' E 011°40'0 0.0
2018-Nov-04 03:03N 57°35' E 011°40'0 0.1
2018-Nov-04 03:00N 57°35' E 011°40'0 0.0
2018-Nov-04 02:30N 57°35' E 011°40'0 0.0
2018-Nov-04 02:03N 57°35' E 011°40'0 0.0
2018-Nov-04 02:00N 57°35' E 011°40'0 0.0
2018-Nov-04 01:30N 57°35' E 011°40'0 0.3
2018-Nov-04 01:04N 57°35' E 011°40'0 3.1
2018-Nov-04 01:01N 57°35' E 011°40'3 6.7
2018-Nov-04 00:30N 57°32' E 011°35'714.4
2018-Nov-04 00:03N 57°28' E 011°27'115.3
2018-Nov-04 00:00N 57°27' E 011°27'816.0
2018-Nov-03 23:30N 57°20' E 011°32'715.9
2018-Nov-03 23:03N 57°13' E 011°36'116.1
2018-Nov-03 23:00N 57°12' E 011°37'816.1
2018-Nov-03 22:30N 57°05' E 011°42'3214.3
2018-Nov-03 20:18N 56°33' E 011°42'515.8
2018-Nov-03 20:00N 56°29' E 011°37'6715.0
2018-Nov-03 15:30N 55°25' E 010°59'714.4
2018-Nov-03 15:00N 55°18' E 011°03'713.4
2018-Nov-03 14:30N 55°12' E 011°05'612.8
2018-Nov-03 14:04N 55°07' E 010°60'114.1
2018-Nov-03 14:01N 55°06' E 010°59'713.6
2018-Nov-03 13:30N 54°60' E 010°59'613.0
2018-Nov-03 13:03N 54°55' E 010°52'113.8
2018-Nov-03 13:00N 54°55' E 010°52'612.7
2018-Nov-03 12:30N 54°48' E 010°50'613.1
2018-Nov-03 12:03N 54°43' E 010°47'113.5
2018-Nov-03 12:00N 54°42' E 010°47'612.8
2018-Nov-03 11:30N 54°38' E 010°55'613.1
2018-Nov-03 11:03N 54°36' E 011°05'113.7
2018-Nov-03 11:00N 54°36' E 011°06'713.1
2018-Nov-03 10:30N 54°34' E 011°17'613.7
2018-Nov-03 10:03N 54°32' E 011°26'114.5
2018-Nov-03 10:00N 54°31' E 011°28'714.3
2018-Nov-03 09:31N 54°29' E 011°39'613.2
2018-Nov-03 09:03N 54°26' E 011°49'112.7
2018-Nov-03 09:00N 54°26' E 011°49'612.7
2018-Nov-03 08:30N 54°26' E 012°00'1111.1
2018-Nov-03 07:30N 54°34' E 012°15'812.9
2018-Nov-03 06:54N 54°39' E 012°24'513.4
2018-Nov-03 06:31N 54°42' E 012°32'1013.4
2018-Nov-03 05:47N 54°47' E 012°46'413.4
2018-Nov-03 05:28N 54°49' E 012°53'4113.3
2018-Nov-03 02:25N 55°03' E 013°59'913.2
2018-Nov-03 01:46N 55°09' E 014°10'613.3
2018-Nov-03 01:20N 55°13' E 014°16'413.2
2018-Nov-03 01:03N 55°16' E 014°20'113.4
2018-Nov-03 00:58N 55°17' E 014°22'2713.2
2018-Nov-02 22:56N 55°34' E 014°59'613.1
2018-Nov-02 22:30N 55°36' E 015°08'613.2
2018-Nov-02 22:04N 55°39' E 015°17'113.1
2018-Nov-02 22:01N 55°40' E 015°18'713.2
2018-Nov-02 21:30N 55°43' E 015°28'613.3
2018-Nov-02 21:03N 55°46' E 015°37'113.3
2018-Nov-02 21:01N 55°46' E 015°38'713.3
2018-Nov-02 20:31N 55°50' E 015°48'613.4
2018-Nov-02 20:04N 55°53' E 015°57'113.6
2018-Nov-02 20:01N 55°53' E 015°58'713.3
2018-Nov-02 19:30N 55°57' E 016°09'613.4
2018-Nov-02 19:03N 55°60' E 016°18'113.4
2018-Nov-02 19:01N 55°60' E 016°19'713.3
2018-Nov-02 18:30N 56°03' E 016°29'613.1
2018-Nov-02 18:03N 56°06' E 016°38'112.9
2018-Nov-02 18:01N 56°07' E 016°39'713.1
2018-Nov-02 17:30N 56°12' E 016°47'613.5
2018-Nov-02 17:03N 56°18' E 016°51'113.3
2018-Nov-02 17:00N 56°18' E 016°51'713.5
2018-Nov-02 16:30N 56°25' E 016°55'23014.0
2018-Nov-02 00:06N 60°03' E 019°14'115.8
2018-Nov-02 00:03N 60°03' E 019°13'115.8
2018-Nov-02 00:00N 60°04' E 019°12'815.9
2018-Nov-01 23:30N 60°10' E 019°02'716.0
2018-Nov-01 23:03N 60°17' E 019°00'116.4
2018-Nov-01 23:00N 60°18' E 019°00'816.0
2018-Nov-01 22:30N 60°26' E 018°59'1015.8
2018-Nov-01 21:53N 60°36' E 018°60'915.8
2018-Nov-01 21:20N 60°44' E 019°01'64 1.3
2018-Oct-30 20:34N 61°16' E 020°57'114.4
2018-Oct-30 20:30N 61°15' E 020°58'816.3
2018-Oct-30 19:59N 61°08' E 021°08'612.4
2018-Oct-30 19:30N 61°06' E 021°20'4 7.0
2018-Oct-30 19:00N 61°08' E 021°26'0 0.0
2018-Oct-30 18:27N 61°08' E 021°26'0 0.0
2018-Oct-30 18:02N 61°08' E 021°26'0 0.1
2018-Oct-30 17:59N 61°08' E 021°26'0 0.0
2018-Oct-30 17:30N 61°08' E 021°26'0 0.0
2018-Oct-30 17:02N 61°08' E 021°26'0 0.0
2018-Oct-30 16:56N 61°08' E 021°26'0 0.0
2018-Oct-30 16:29N 61°08' E 021°26'0 0.0
2018-Oct-30 15:53N 61°08' E 021°26'0 0.0
2018-Oct-30 15:30N 61°08' E 021°26'0 0.0
2018-Oct-30 14:58N 61°08' E 021°26'0 0.0
2018-Oct-30 14:02N 61°08' E 021°26'0 0.0
2018-Oct-30 13:29N 61°08' E 021°26'0 0.0
2018-Oct-30 12:59N 61°08' E 021°26'0 0.0
2018-Oct-30 12:17N 61°08' E 021°26'0 0.0
2018-Oct-30 11:59N 61°08' E 021°26'0 0.0
2018-Oct-30 11:28N 61°08' E 021°26'0 0.0
2018-Oct-30 10:50N 61°08' E 021°26'0 0.0
2018-Oct-30 10:29N 61°08' E 021°26'0 0.0
2018-Oct-30 10:01N 61°08' E 021°26'0 0.1
2018-Oct-30 09:58N 61°08' E 021°26'0 0.0
2018-Oct-30 09:29N 61°08' E 021°26'0 0.0
2018-Oct-30 08:46N 61°08' E 021°26'0 0.0
2018-Oct-30 08:29N 61°08' E 021°26'0 0.0
2018-Oct-30 08:02N 61°08' E 021°26'0 0.1
2018-Oct-30 07:59N 61°08' E 021°26'0 0.0
2018-Oct-30 07:28N 61°08' E 021°26'0 0.1
2018-Oct-30 06:59N 61°08' E 021°26'0 0.0
2018-Oct-30 06:28N 61°08' E 021°26'0 0.0
2018-Oct-30 06:01N 61°08' E 021°26'0 0.2
2018-Oct-30 05:58N 61°08' E 021°26'0 0.0
2018-Oct-30 05:29N 61°08' E 021°26'0 0.0
2018-Oct-30 05:01N 61°08' E 021°26'0 0.1
2018-Oct-30 04:58N 61°08' E 021°26'0 0.0
2018-Oct-30 04:18N 61°08' E 021°26'0 0.0
2018-Oct-30 04:02N 61°08' E 021°26'0 0.1
2018-Oct-30 03:59N 61°08' E 021°26'0 0.0
2018-Oct-30 03:29N 61°08' E 021°26'0 0.0
2018-Oct-30 03:01N 61°08' E 021°26'0 0.1
2018-Oct-30 02:58N 61°08' E 021°26'0 0.0
2018-Oct-30 02:29N 61°08' E 021°26'0 0.0
2018-Oct-30 02:00N 61°08' E 021°26'0 0.0
2018-Oct-30 01:25N 61°08' E 021°26'0 0.0
2018-Oct-30 01:02N 61°08' E 021°26'0 0.1
2018-Oct-30 00:58N 61°08' E 021°26'0 0.0
2018-Oct-30 00:23N 61°08' E 021°26'0 0.0
2018-Oct-30 00:01N 61°08' E 021°26'0 0.2
2018-Oct-29 23:58N 61°08' E 021°26'0 0.0
2018-Oct-29 23:19N 61°08' E 021°26'0 0.0
2018-Oct-29 22:56N 61°08' E 021°26'0 0.0
2018-Oct-29 22:28N 61°08' E 021°26'0 0.0
2018-Oct-29 22:01N 61°08' E 021°26'0 0.1
2018-Oct-29 21:58N 61°08' E 021°26'0 0.0
2018-Oct-29 21:28N 61°08' E 021°26'0 0.0
2018-Oct-29 21:01N 61°08' E 021°26'0 0.1
2018-Oct-29 20:58N 61°08' E 021°26'0 0.0
2018-Oct-29 20:29N 61°08' E 021°26'0 0.0
2018-Oct-29 19:55N 61°08' E 021°26'0 0.0
2018-Oct-29 19:28N 61°08' E 021°26'0 0.0
2018-Oct-29 19:03N 61°08' E 021°26'0 0.0
2018-Oct-29 19:00N 61°08' E 021°26'0 0.0
2018-Oct-29 18:28N 61°08' E 021°26'0 0.0
2018-Oct-29 18:03N 61°08' E 021°26'0 0.0
2018-Oct-29 17:56N 61°08' E 021°26'0 0.0
2018-Oct-29 17:28N 61°08' E 021°26'0 0.0
2018-Oct-29 16:42N 61°08' E 021°26'0 0.0
2018-Oct-29 16:30N 61°08' E 021°26'0 0.0
2018-Oct-29 15:58N 61°08' E 021°26'0 0.0
2018-Oct-29 15:29N 61°08' E 021°26'0 0.0
2018-Oct-29 15:01N 61°08' E 021°26'0 0.1
2018-Oct-29 14:58N 61°08' E 021°26'0 0.0
2018-Oct-29 14:19N 61°08' E 021°26'0 0.0
2018-Oct-29 13:55N 61°08' E 021°26'0 0.0
2018-Oct-29 13:25N 61°08' E 021°26'0 0.0
2018-Oct-29 13:00N 61°08' E 021°26'0 0.0
2018-Oct-29 12:19N 61°08' E 021°26'0 0.0
2018-Oct-29 12:01N 61°08' E 021°26'0 0.0
2018-Oct-29 11:58N 61°08' E 021°26'0 0.0
2018-Oct-29 11:28N 61°08' E 021°26'0 0.0
2018-Oct-29 11:01N 61°08' E 021°26'0 0.1
2018-Oct-29 10:58N 61°08' E 021°26'0 0.0
2018-Oct-29 10:28N 61°08' E 021°26'0 0.0
2018-Oct-29 09:58N 61°08' E 021°26'0 0.0
2018-Oct-29 09:29N 61°08' E 021°26'0 0.0
2018-Oct-29 09:01N 61°08' E 021°26'0 0.0
2018-Oct-29 08:58N 61°08' E 021°26'0 0.0
2018-Oct-29 08:28N 61°08' E 021°26'0 0.0
2018-Oct-29 08:01N 61°08' E 021°26'0 0.0
2018-Oct-29 07:55N 61°08' E 021°26'0 0.0
2018-Oct-29 07:27N 61°08' E 021°26'0 0.0
2018-Oct-29 07:01N 61°08' E 021°26'0 0.2
2018-Oct-29 06:58N 61°08' E 021°26'0 0.0
2018-Oct-29 06:28N 61°08' E 021°26'0 0.0
2018-Oct-29 06:02N 61°08' E 021°26'0 0.1
2018-Oct-29 05:59N 61°08' E 021°26'0 0.0
2018-Oct-29 05:27N 61°08' E 021°26'0 0.0
2018-Oct-29 04:58N 61°08' E 021°26'0 0.0
2018-Oct-29 04:28N 61°08' E 021°26'0 0.0
2018-Oct-29 03:59N 61°08' E 021°26'0 0.0
2018-Oct-29 03:29N 61°08' E 021°26'0 0.0
2018-Oct-29 02:58N 61°08' E 021°26'0 0.0
2018-Oct-29 02:28N 61°08' E 021°26'0 0.0
2018-Oct-29 02:03N 61°08' E 021°26'0 0.0
2018-Oct-29 01:57N 61°08' E 021°26'0 0.0
2018-Oct-29 01:29N 61°08' E 021°26'0 0.0
2018-Oct-29 01:01N 61°08' E 021°26'0 0.0
2018-Oct-29 00:29N 61°08' E 021°26'0 0.0
2018-Oct-28 23:57N 61°08' E 021°26'0 0.0
2018-Oct-28 23:28N 61°08' E 021°26'0 0.0
2018-Oct-28 23:03N 61°08' E 021°26'0 0.0
2018-Oct-28 22:56N 61°08' E 021°26'0 0.0
2018-Oct-28 22:28N 61°08' E 021°26'0 0.0
2018-Oct-28 22:02N 61°08' E 021°26'0 0.0
2018-Oct-28 21:59N 61°08' E 021°26'0 0.0
2018-Oct-28 21:28N 61°08' E 021°26'0 0.0
2018-Oct-28 21:02N 61°08' E 021°26'0 0.1
2018-Oct-28 20:56N 61°08' E 021°26'0 0.0
2018-Oct-28 20:28N 61°08' E 021°26'0 0.0
2018-Oct-28 19:45N 61°08' E 021°26'0 0.0
2018-Oct-28 19:26N 61°08' E 021°26'0 0.0
2018-Oct-28 19:02N 61°08' E 021°26'0 0.2
2018-Oct-28 18:58N 61°08' E 021°26'0 0.0
2018-Oct-28 18:29N 61°08' E 021°26'0 0.0
2018-Oct-28 18:01N 61°08' E 021°26'0 0.1
2018-Oct-28 17:57N 61°08' E 021°26'0 0.0
2018-Oct-28 17:25N 61°08' E 021°26'0 0.0
2018-Oct-28 17:03N 61°08' E 021°26'0 0.1
2018-Oct-28 16:59N 61°08' E 021°26'0 0.0
2018-Oct-28 16:26N 61°08' E 021°26'0 0.0
2018-Oct-28 16:00N 61°08' E 021°26'0 0.0
2018-Oct-28 15:30N 61°08' E 021°26'0 0.0
2018-Oct-28 14:59N 61°08' E 021°26'  

Dump ship's entire track history